This is the latest recevied weather packets stored in our database for station/object OE3EMC-13. If no packets are shown the sender has not sent any weather packets the latest 10 day(s).
| Time | Temp. | Humidity | Pressure | Rain* | Wind** | Luminosity | Snow |
|---|---|---|---|---|---|---|---|
| 1777626793 | 13.33° C | 49% | 1100 hPa | 0 mm | - | - | - |
| 1777626193 | 13.33° C | 49% | 1100 hPa | 0 mm | - | - | - |
| 1777625592 | 11.67° C | 52% | 1100 hPa | 0 mm | - | - | - |
| 1777624992 | 11.67° C | 52% | 1100 hPa | 0 mm | - | - | - |
| 1777624392 | 10° C | 53% | 1100 hPa | 0 mm | - | - | - |
| 1777623793 | 10° C | 53% | 1100 hPa | 0 mm | - | - | - |
| 1777623192 | 8.89° C | 55% | 1100 hPa | 0 mm | - | - | - |
| 1777622592 | 8.89° C | 55% | 1100 hPa | 0 mm | - | - | - |
| 1777621993 | 8.33° C | 55% | 1100 hPa | 0 mm | - | - | - |
| 1777621391 | 8.33° C | 55% | 1100 hPa | 0 mm | - | - | - |
| 1777620791 | 7.78° C | 58% | 1100 hPa | 0 mm | - | - | - |
| 1777620191 | 7.78° C | 58% | 1100 hPa | 0 mm | - | - | - |
| 1777619591 | 6.11° C | 59% | 1100 hPa | 0 mm | - | - | - |
| 1777618991 | 6.11° C | 59% | 1100 hPa | 0 mm | - | - | - |
| 1777618390 | 5° C | 61% | 1100 hPa | 0 mm | - | - | - |
| 1777617791 | 5° C | 61% | 1100 hPa | 0 mm | - | - | - |
| 1777617190 | 3.33° C | 73% | 1100 hPa | 0 mm | - | - | - |
| 1777616591 | 3.33° C | 73% | 1100 hPa | 0 mm | - | - | - |
| 1777615990 | 1.67° C | 80% | 1100 hPa | 0 mm | - | - | - |
| 1777615390 | 1.67° C | 80% | 1100 hPa | 0 mm | - | - | - |
| 1777614791 | 0.56° C | 81% | 1100 hPa | 0 mm | - | - | - |
| 1777614190 | 0.56° C | 81% | 1100 hPa | 0 mm | - | - | - |
| 1777613589 | -0.56° C | 82% | 1100 hPa | 0 mm | - | - | - |
| 1777612994 | -0.56° C | 82% | 1100 hPa | 0 mm | - | - | - |
| 1777612394 | -1.67° C | 81% | 1100 hPa | 0 mm | - | - | - |
* Rain latest hour (hover to see other rain measurements)
** Current wind speed in m/s (hover to see current wind gust speed)